createdAt,value
2023-04-21T00:00:33.870Z,15.20
2023-04-21T00:03:03.850Z,17.60
2023-04-21T00:05:33.477Z,14.40
2023-04-21T00:08:02.005Z,14.10
2023-04-21T00:10:30.909Z,15.50
2023-04-21T00:12:59.218Z,16.60
2023-04-21T00:15:27.608Z,13.80
2023-04-21T00:17:56.112Z,15.10
2023-04-21T00:20:27.155Z,16.60
2023-04-21T00:22:57.297Z,15.50
2023-04-21T00:25:26.450Z,16.50
2023-04-21T00:27:55.535Z,14.80
2023-04-21T00:30:23.878Z,16.50
2023-04-21T00:32:52.124Z,15.50
2023-04-21T00:35:20.512Z,15.30
2023-04-21T00:37:50.339Z,14.40
2023-04-21T00:40:18.777Z,16.80
2023-04-21T00:42:47.468Z,13.80
2023-04-21T00:45:16.822Z,14.80
2023-04-21T00:47:45.275Z,13.60
2023-04-21T00:50:13.647Z,13.40
2023-04-21T00:52:44.707Z,15.50
2023-04-21T00:55:13.083Z,15.30
2023-04-21T00:57:42.125Z,14.40
2023-04-21T01:00:11.027Z,14.90
2023-04-21T01:02:41.707Z,15.70
2023-04-21T01:05:10.724Z,16.40
2023-04-21T01:07:40.310Z,17.20
2023-04-21T01:10:09.130Z,14.90
2023-04-21T01:12:47.926Z,17.40
2023-04-21T01:15:18.125Z,19.40
2023-04-21T01:17:46.502Z,15.80
2023-04-21T01:20:16.191Z,17.00
2023-04-21T01:22:47.366Z,17.10
2023-04-21T01:25:17.827Z,19.50
2023-04-21T01:27:46.182Z,18.10
2023-04-21T01:30:14.512Z,19.20
2023-04-21T01:32:44.040Z,17.10
2023-04-21T01:35:12.552Z,18.30
2023-04-21T01:37:41.026Z,17.40
2023-04-21T01:40:10.344Z,20.50
2023-04-21T01:42:43.406Z,19.10
2023-04-21T01:45:12.776Z,18.70
2023-04-21T01:47:41.672Z,17.90
2023-04-21T01:50:10.811Z,19.60
2023-04-21T01:52:39.935Z,18.30
2023-04-21T01:55:08.731Z,16.70
2023-04-21T01:57:37.108Z,18.40
2023-04-21T02:00:07.188Z,19.00
2023-04-21T02:02:45.104Z,18.90
2023-04-21T02:05:14.904Z,18.80
2023-04-21T02:07:43.608Z,19.90
2023-04-21T02:10:13.157Z,19.60
2023-04-21T02:12:44.422Z,20.20
2023-04-21T02:15:12.737Z,19.90
2023-04-21T02:17:43.271Z,20.30
2023-04-21T02:20:12.573Z,17.80
2023-04-21T02:22:41.393Z,20.30
2023-04-21T02:25:10.243Z,23.50
2023-04-21T02:27:40.645Z,21.00
2023-04-21T02:30:09.553Z,19.90
2023-04-21T02:32:39.051Z,20.70
2023-04-21T02:35:07.685Z,22.00
2023-04-21T02:37:36.760Z,20.10
2023-04-21T02:40:06.824Z,20.00
2023-04-21T02:42:35.465Z,19.40
2023-04-21T02:45:04.217Z,18.60
2023-04-21T02:47:34.011Z,19.60
2023-04-21T02:50:02.525Z,18.20
2023-04-21T02:52:37.358Z,18.10
2023-04-21T02:55:06.159Z,18.70
2023-04-21T02:57:34.751Z,19.70
2023-04-21T03:00:05.224Z,21.30
2023-04-21T03:02:34.629Z,21.00
2023-04-21T03:05:04.439Z,21.90
2023-04-21T03:07:33.119Z,21.60
2023-04-21T03:10:01.516Z,22.40
2023-04-21T03:12:30.489Z,22.20
2023-04-21T03:14:59.711Z,20.60
2023-04-21T03:17:28.578Z,22.10
2023-04-21T03:19:58.936Z,20.90
2023-04-21T03:22:27.430Z,20.00
2023-04-21T03:24:55.879Z,21.40
2023-04-21T03:27:24.275Z,21.90
2023-04-21T03:29:52.619Z,21.50
2023-04-21T03:32:21.061Z,22.80
2023-04-21T03:34:50.647Z,21.80
2023-04-21T03:37:18.995Z,23.10
2023-04-21T03:39:47.352Z,21.60
2023-04-21T03:42:16.087Z,23.80
2023-04-21T03:44:44.384Z,24.40
2023-04-21T03:47:12.822Z,25.40
2023-04-21T03:49:41.302Z,26.70
2023-04-21T03:52:09.622Z,25.90
2023-04-21T03:54:38.389Z,24.90
2023-04-21T03:57:07.164Z,28.00
2023-04-21T03:59:35.627Z,27.40
2023-04-21T04:02:04.230Z,27.70
2023-04-21T04:04:33.089Z,25.90
2023-04-21T04:07:01.544Z,26.50
2023-04-21T04:09:29.976Z,25.20
2023-04-21T04:11:58.241Z,26.80
2023-04-21T04:14:27.332Z,30.10
2023-04-21T04:16:55.727Z,31.00
2023-04-21T04:19:23.986Z,30.60
2023-04-21T04:21:52.245Z,28.40
2023-04-21T04:24:21.879Z,29.60
2023-04-21T04:26:50.115Z,28.00
2023-04-21T04:29:18.985Z,28.50
2023-04-21T04:31:47.857Z,25.50
2023-04-21T04:34:16.488Z,22.00
2023-04-21T04:36:45.388Z,21.60
2023-04-21T04:39:14.043Z,22.70
2023-04-21T04:41:42.304Z,21.80
2023-04-21T04:44:11.425Z,20.80
2023-04-21T04:46:40.942Z,22.20
2023-04-21T04:49:09.274Z,23.70
2023-04-21T04:51:37.545Z,21.70
2023-04-21T04:54:06.005Z,25.50
2023-04-21T04:56:34.614Z,23.60
2023-04-21T04:59:02.852Z,24.30
2023-04-21T05:01:31.541Z,24.40
2023-04-21T05:04:00.012Z,24.80
2023-04-21T05:06:28.912Z,24.10
2023-04-21T05:08:57.230Z,24.10
2023-04-21T05:11:25.625Z,23.10
2023-04-21T05:13:54.417Z,23.50
2023-04-21T05:16:22.894Z,22.00
2023-04-21T05:18:54.141Z,19.80
2023-04-21T05:21:31.660Z,20.50
2023-04-21T05:24:00.276Z,20.00
2023-04-21T05:26:29.831Z,19.70
2023-04-21T05:28:58.992Z,17.30
2023-04-21T05:31:27.694Z,13.60
2023-04-21T05:33:56.378Z,14.80
2023-04-21T05:36:25.252Z,13.60
2023-04-21T05:38:54.239Z,12.70
2023-04-21T05:41:22.855Z,16.40
2023-04-21T05:43:51.609Z,15.50
2023-04-21T05:46:19.907Z,14.40
2023-04-21T05:48:48.348Z,14.80
2023-04-21T05:51:16.708Z,15.50
2023-04-21T05:53:46.221Z,16.10
2023-04-21T05:56:14.975Z,16.10
2023-04-21T05:58:44.110Z,15.70
2023-04-21T06:01:13.301Z,15.50
2023-04-21T06:03:41.747Z,15.80
2023-04-21T06:06:11.789Z,14.70
2023-04-21T06:08:40.360Z,13.90
2023-04-21T06:11:08.820Z,16.60
2023-04-21T06:13:39.520Z,13.60
2023-04-21T06:16:09.487Z,12.00
2023-04-21T06:18:37.879Z,12.40
2023-04-21T06:21:06.358Z,15.70
2023-04-21T06:23:34.900Z,13.30
2023-04-21T06:26:05.598Z,11.90
2023-04-21T06:28:35.567Z,11.60
2023-04-21T06:31:06.208Z,11.90
2023-04-21T06:33:36.497Z,12.60
2023-04-21T06:36:05.194Z,11.90
2023-04-21T06:38:33.700Z,11.80
2023-04-21T06:41:02.899Z,11.00
2023-04-21T06:43:31.447Z,12.40
2023-04-21T06:45:59.872Z,12.60
2023-04-21T06:48:30.121Z,11.50
2023-04-21T06:50:58.458Z,12.10
2023-04-21T06:53:26.914Z,13.10
2023-04-21T06:55:55.802Z,12.10
2023-04-21T06:58:24.207Z,16.50
2023-04-21T07:00:52.580Z,15.20
2023-04-21T07:03:21.354Z,12.50
2023-04-21T07:05:49.828Z,12.80
2023-04-21T07:08:18.128Z,13.40
2023-04-21T07:10:46.749Z,13.20
2023-04-21T07:13:16.087Z,13.20
2023-04-21T07:15:44.730Z,13.70
2023-04-21T07:18:13.205Z,16.30
2023-04-21T07:20:41.758Z,16.00
2023-04-21T07:23:10.183Z,13.70
2023-04-21T07:25:38.722Z,13.30
2023-04-21T07:28:07.360Z,14.80
2023-04-21T07:30:35.773Z,18.90
2023-04-21T07:33:04.253Z,13.90
2023-04-21T07:35:32.656Z,19.00
2023-04-21T07:38:01.005Z,26.20
2023-04-21T07:40:30.854Z,11.60
2023-04-21T07:42:59.157Z,11.00
2023-04-21T07:45:27.467Z,13.10
2023-04-21T07:47:56.055Z,13.00
2023-04-21T07:50:24.881Z,11.90
2023-04-21T07:52:53.226Z,12.30
2023-04-21T07:55:21.613Z,18.90
2023-04-21T07:57:50.679Z,24.40
2023-04-21T08:00:19.184Z,25.30
2023-04-21T08:02:48.094Z,25.80
2023-04-21T08:05:16.821Z,23.80
2023-04-21T08:07:45.369Z,26.60
2023-04-21T08:10:13.771Z,26.30
2023-04-21T08:12:42.172Z,20.20
2023-04-21T08:15:12.709Z,20.40
2023-04-21T08:17:41.382Z,19.20
2023-04-21T08:20:10.907Z,21.30
2023-04-21T08:22:40.080Z,19.60
2023-04-21T08:25:09.041Z,21.70
2023-04-21T08:27:39.728Z,25.60
2023-04-21T08:30:08.895Z,24.20
2023-04-21T08:32:37.767Z,23.00
2023-04-21T08:35:06.664Z,23.70
2023-04-21T08:37:39.461Z,21.80
2023-04-21T08:40:08.397Z,21.20
2023-04-21T08:42:39.309Z,20.40
2023-04-21T08:45:08.406Z,19.10
2023-04-21T08:47:40.590Z,20.50
2023-04-21T08:50:13.967Z,20.10
2023-04-21T08:52:42.445Z,19.50
2023-04-21T08:55:13.694Z,22.50
2023-04-21T08:57:42.162Z,20.10
2023-04-21T09:00:11.077Z,18.60
2023-04-21T09:03:01.787Z,17.90
2023-04-21T09:05:33.698Z,18.30
2023-04-21T09:08:11.610Z,18.50
2023-04-21T09:10:48.843Z,19.40
2023-04-21T09:13:19.487Z,21.60
2023-04-21T09:15:50.924Z,17.20
2023-04-21T09:18:22.357Z,19.20
2023-04-21T09:21:04.943Z,32.60
2023-04-21T09:23:49.495Z,27.00
2023-04-21T09:26:19.874Z,21.30
2023-04-21T09:28:49.830Z,18.90
2023-04-21T09:31:20.481Z,18.70
2023-04-21T09:33:58.625Z,17.40
2023-04-21T09:36:30.697Z,19.20
2023-04-21T09:39:29.206Z,18.70
2023-04-21T09:41:51.562Z,15.20
2023-04-21T09:44:20.656Z,15.20
2023-04-21T09:46:51.464Z,14.70
2023-04-21T09:49:23.680Z,26.10
2023-04-21T09:54:31.840Z,14.90
2023-04-21T09:57:02.890Z,15.10
2023-04-21T09:59:37.348Z,13.10
2023-04-21T10:02:08.074Z,13.70
2023-04-21T10:04:38.920Z,15.40
2023-04-21T10:07:07.758Z,16.10
2023-04-21T10:09:45.718Z,11.20
2023-04-21T10:12:15.641Z,13.50
2023-04-21T10:14:43.993Z,11.10
2023-04-21T10:17:12.865Z,10.70
2023-04-21T10:19:53.166Z,11.10
2023-04-21T10:22:33.427Z,11.20
2023-04-21T10:25:04.537Z,14.30
2023-04-21T10:27:43.448Z,9.30
2023-04-21T10:30:20.168Z,9.50
2023-04-21T10:32:49.193Z,11.00
2023-04-21T10:35:23.427Z,10.40
2023-04-21T10:37:52.510Z,11.50
2023-04-21T10:40:42.418Z,11.70
2023-04-21T10:43:47.471Z,14.30
2023-04-21T10:46:34.377Z,11.70
2023-04-21T10:49:10.748Z,11.50
2023-04-21T10:51:57.897Z,9.20
2023-04-21T10:54:46.247Z,11.00
2023-04-21T10:57:16.933Z,11.00
2023-04-21T10:59:47.021Z,9.90
2023-04-21T11:02:17.754Z,8.60
2023-04-21T11:04:51.580Z,9.70
2023-04-21T11:07:23.292Z,9.30
2023-04-21T11:10:01.684Z,8.80
2023-04-21T11:12:41.047Z,10.10
2023-04-21T11:15:12.071Z,10.10
2023-04-21T11:17:43.624Z,10.40
2023-04-21T11:20:12.340Z,9.50
2023-04-21T11:22:40.702Z,10.40
2023-04-21T11:25:18.855Z,9.40
2023-04-21T11:28:00.288Z,12.60
2023-04-21T11:30:34.567Z,9.30
2023-04-21T11:33:03.293Z,8.60
2023-04-21T11:35:32.402Z,7.60
2023-04-21T11:38:06.167Z,8.40
2023-04-21T11:40:48.317Z,9.00
2023-04-21T11:43:17.105Z,9.80
2023-04-21T11:45:54.150Z,9.20
2023-04-21T11:48:22.649Z,10.00
2023-04-21T11:50:51.401Z,9.60
2023-04-21T11:53:21.195Z,9.00
2023-04-21T11:55:49.694Z,8.40
2023-04-21T11:58:21.319Z,9.30
2023-04-21T12:00:51.506Z,8.50
2023-04-21T12:03:21.044Z,7.20
2023-04-21T12:05:57.410Z,8.50
2023-04-21T12:08:30.733Z,7.70
2023-04-21T12:10:59.597Z,8.60
2023-04-21T12:13:30.239Z,13.10
2023-04-21T12:15:58.576Z,15.00
2023-04-21T12:18:32.174Z,19.70
2023-04-21T12:21:03.238Z,20.60
2023-04-21T12:23:31.820Z,19.10
2023-04-21T12:26:01.641Z,19.80
2023-04-21T12:28:30.380Z,22.10
2023-04-21T12:30:58.757Z,21.60
2023-04-21T12:33:27.487Z,21.50
2023-04-21T12:35:56.524Z,21.40
2023-04-21T12:38:25.057Z,22.60
2023-04-21T12:40:53.640Z,20.90
2023-04-21T12:43:22.961Z,22.80
2023-04-21T12:45:52.976Z,21.30
2023-04-21T12:48:22.081Z,21.40
2023-04-21T12:50:50.448Z,19.70
2023-04-21T12:53:18.933Z,21.50
2023-04-21T12:56:01.044Z,20.60
2023-04-21T12:58:33.457Z,21.10
2023-04-21T13:01:02.112Z,21.90
2023-04-21T13:03:30.922Z,20.60
2023-04-21T13:05:59.360Z,18.30
2023-04-21T13:08:27.832Z,17.40
2023-04-21T13:10:56.257Z,16.90
2023-04-21T13:13:24.811Z,16.20
2023-04-21T13:15:53.239Z,15.40
2023-04-21T13:18:22.222Z,17.00
2023-04-21T13:20:50.637Z,16.00
2023-04-21T13:23:19.169Z,16.60
2023-04-21T13:25:47.872Z,16.30
2023-04-21T13:28:16.726Z,15.50
2023-04-21T13:30:45.423Z,15.50
2023-04-21T13:33:14.178Z,14.20
2023-04-21T13:35:42.738Z,16.30
2023-04-21T13:38:12.052Z,15.20
2023-04-21T13:40:40.553Z,16.30
2023-04-21T13:43:09.496Z,15.10
2023-04-21T13:45:39.170Z,14.40
2023-04-21T13:48:07.681Z,15.70
2023-04-21T13:50:36.085Z,15.30
2023-04-21T13:53:04.468Z,15.40
2023-04-21T13:55:34.225Z,12.60
2023-04-21T13:58:02.748Z,14.50
2023-04-21T14:00:31.136Z,14.50
2023-04-21T14:02:59.704Z,13.90
2023-04-21T14:05:28.781Z,15.00
2023-04-21T14:07:57.228Z,15.10
2023-04-21T14:10:25.535Z,14.50
2023-04-21T14:12:53.923Z,15.00
2023-04-21T14:15:22.376Z,15.90
2023-04-21T14:17:51.048Z,14.50
2023-04-21T14:20:20.131Z,14.50
2023-04-21T14:22:48.563Z,14.60
2023-04-21T14:25:16.994Z,15.50
2023-04-21T14:27:45.403Z,16.10
2023-04-21T14:30:15.671Z,14.70
2023-04-21T14:32:45.866Z,14.10
2023-04-21T14:35:14.671Z,14.70
2023-04-21T14:37:43.304Z,14.50
2023-04-21T14:40:11.815Z,16.20
2023-04-21T14:42:41.798Z,15.90
2023-04-21T14:45:10.836Z,14.30
2023-04-21T14:47:39.518Z,14.00
2023-04-21T14:50:08.517Z,13.60
2023-04-21T14:52:37.078Z,15.60
2023-04-21T14:55:06.165Z,17.10
2023-04-21T14:57:34.804Z,15.40
2023-04-21T15:00:03.354Z,14.80
2023-04-21T15:02:32.784Z,15.30
2023-04-21T15:05:02.390Z,13.20
2023-04-21T15:07:31.179Z,13.00
2023-04-21T15:09:59.788Z,13.20
2023-04-21T15:12:28.296Z,14.00
2023-04-21T15:14:56.578Z,14.40
2023-04-21T15:17:25.574Z,16.60
2023-04-21T15:19:53.978Z,14.90
2023-04-21T15:22:22.417Z,15.30
2023-04-21T15:24:52.399Z,14.80
2023-04-21T15:27:23.363Z,15.70
2023-04-21T15:29:51.876Z,16.20
2023-04-21T15:32:20.665Z,15.00
2023-04-21T15:34:49.402Z,16.20
2023-04-21T15:37:17.987Z,14.70
2023-04-21T15:39:46.242Z,15.20
2023-04-21T15:42:14.875Z,12.90
2023-04-21T15:44:43.236Z,11.80
2023-04-21T15:47:11.603Z,15.10
2023-04-21T15:49:39.929Z,12.50
2023-04-21T15:52:08.580Z,13.00
2023-04-21T15:54:37.943Z,12.70
2023-04-21T15:57:06.493Z,13.10
2023-04-21T15:59:35.156Z,14.80
2023-04-21T16:02:04.116Z,12.90
2023-04-21T16:04:33.084Z,13.40
2023-04-21T16:07:01.606Z,15.30
2023-04-21T16:09:30.068Z,14.90
2023-04-21T16:11:58.512Z,15.10
2023-04-21T16:14:27.007Z,16.50
2023-04-21T16:16:56.623Z,17.40
2023-04-21T16:19:25.560Z,18.50
2023-04-21T16:21:55.307Z,17.20
2023-04-21T16:24:24.086Z,18.10
2023-04-21T16:26:52.701Z,16.60
2023-04-21T16:29:21.167Z,16.80
2023-04-21T16:31:49.652Z,16.40
2023-04-21T16:34:17.984Z,13.90
2023-04-21T16:36:46.361Z,11.20
2023-04-21T16:39:14.872Z,10.70
2023-04-21T16:41:43.279Z,12.20
2023-04-21T16:44:11.707Z,13.70
2023-04-21T16:46:40.998Z,11.60
2023-04-21T16:49:09.615Z,12.40
2023-04-21T16:51:40.348Z,10.90
2023-04-21T16:54:08.700Z,10.00
2023-04-21T16:56:37.517Z,9.10
2023-04-21T16:59:09.253Z,9.80
2023-04-21T17:01:37.950Z,9.50
2023-04-21T17:04:06.570Z,8.10
2023-04-21T17:06:35.135Z,9.30
2023-04-21T17:09:03.598Z,8.70
2023-04-21T17:11:32.878Z,8.70
2023-04-21T17:14:01.810Z,6.70
2023-04-21T17:16:30.315Z,7.60
2023-04-21T17:18:58.689Z,7.70
2023-04-21T17:21:28.752Z,7.40
2023-04-21T17:23:57.218Z,6.80
2023-04-21T17:26:26.027Z,8.80
2023-04-21T17:28:54.399Z,8.00
2023-04-21T17:31:22.949Z,6.90
2023-04-21T17:33:53.450Z,7.50
2023-04-21T17:36:21.731Z,7.20
2023-04-21T17:38:50.192Z,7.10
2023-04-21T17:41:18.758Z,7.10
2023-04-21T17:43:47.312Z,6.00
2023-04-21T17:46:15.730Z,6.00
2023-04-21T17:48:44.171Z,5.90
2023-04-21T17:51:14.258Z,7.00
2023-04-21T17:53:42.717Z,6.50
2023-04-21T17:56:11.768Z,7.40
2023-04-21T17:58:41.679Z,6.20
2023-04-21T18:01:10.274Z,7.40
2023-04-21T18:03:41.634Z,7.30
2023-04-21T18:06:11.517Z,6.90
2023-04-21T18:08:41.314Z,6.80
2023-04-21T18:11:09.735Z,6.40
2023-04-21T18:13:37.998Z,7.80
2023-04-21T18:16:06.988Z,7.70
2023-04-21T18:18:35.464Z,7.90
2023-04-21T18:21:04.428Z,6.80
2023-04-21T18:23:32.914Z,6.90
2023-04-21T18:26:02.355Z,7.20
2023-04-21T18:28:32.056Z,7.10
2023-04-21T18:31:01.091Z,7.50
2023-04-21T18:33:29.836Z,8.80
2023-04-21T18:35:58.467Z,8.50
2023-04-21T18:38:26.885Z,9.00
2023-04-21T18:40:55.886Z,10.30
2023-04-21T18:43:24.439Z,10.20
2023-04-21T18:45:53.174Z,11.80
2023-04-21T18:48:21.492Z,10.50
2023-04-21T18:50:49.801Z,12.60
2023-04-21T18:53:18.047Z,13.00
2023-04-21T18:55:46.449Z,14.10
2023-04-21T18:58:15.258Z,16.60
2023-04-21T19:00:44.637Z,16.70
2023-04-21T19:03:13.200Z,18.90
2023-04-21T19:05:42.347Z,16.90
2023-04-21T19:08:10.867Z,15.30
2023-04-21T19:10:40.972Z,15.30
2023-04-21T19:13:09.519Z,14.60
2023-04-21T19:15:39.009Z,15.70
2023-04-21T19:18:07.885Z,16.10
2023-04-21T19:20:37.677Z,15.00
2023-04-21T19:23:06.078Z,15.60
2023-04-21T19:25:35.859Z,14.00
2023-04-21T19:28:04.529Z,13.20
2023-04-21T19:30:33.056Z,14.00
2023-04-21T19:33:01.441Z,15.10
2023-04-21T19:35:29.862Z,13.00
2023-04-21T19:37:59.344Z,14.20
2023-04-21T19:40:27.642Z,14.40
2023-04-21T19:42:58.677Z,13.60
2023-04-21T19:45:26.969Z,13.90
2023-04-21T19:47:55.396Z,14.70
2023-04-21T19:50:23.854Z,14.30
2023-04-21T19:52:52.117Z,14.00
2023-04-21T19:55:20.747Z,13.70
2023-04-21T19:57:49.175Z,12.50
2023-04-21T20:00:17.769Z,12.10
2023-04-21T20:02:46.415Z,12.50
2023-04-21T20:05:15.042Z,10.80
2023-04-21T20:07:44.392Z,9.40
2023-04-21T20:10:13.983Z,12.10
2023-04-21T20:12:42.375Z,9.30
2023-04-21T20:15:12.194Z,10.30
2023-04-21T20:17:42.101Z,9.20
2023-04-21T20:20:11.175Z,10.00
2023-04-21T20:22:39.960Z,9.50
2023-04-21T20:25:08.937Z,10.00
2023-04-21T20:27:37.514Z,10.10
2023-04-21T20:30:08.097Z,9.70
2023-04-21T20:32:37.191Z,8.80
2023-04-21T20:35:08.014Z,9.50
2023-04-21T20:37:37.014Z,8.90
2023-04-21T20:40:08.582Z,8.50
2023-04-21T20:42:38.587Z,9.10
2023-04-21T20:45:07.591Z,7.30
2023-04-21T20:47:37.025Z,8.80
2023-04-21T20:50:06.176Z,8.10
2023-04-21T20:52:35.199Z,8.60
2023-04-21T20:55:03.539Z,7.60
2023-04-21T20:57:33.142Z,7.50
2023-04-21T21:00:02.133Z,7.50
2023-04-21T21:02:31.308Z,6.10
2023-04-21T21:04:59.746Z,6.90
2023-04-21T21:07:28.150Z,7.30
2023-04-21T21:09:56.720Z,7.70
2023-04-21T21:12:25.677Z,8.60
2023-04-21T21:14:54.161Z,7.50
2023-04-21T21:17:22.949Z,7.50
2023-04-21T21:19:51.463Z,7.00
2023-04-21T21:22:20.039Z,7.60
2023-04-21T21:24:50.560Z,7.60
2023-04-21T21:27:19.196Z,6.70
2023-04-21T21:29:47.600Z,7.10
2023-04-21T21:32:16.368Z,7.00
2023-04-21T21:34:44.773Z,6.60
2023-04-21T21:37:13.153Z,7.60
2023-04-21T21:39:41.590Z,6.90
2023-04-21T21:42:11.614Z,6.30
2023-04-21T21:44:39.989Z,7.20
2023-04-21T21:47:08.451Z,7.50
2023-04-21T21:49:38.623Z,8.90
2023-04-21T21:52:07.400Z,9.10
2023-04-21T21:54:35.788Z,10.20
2023-04-21T21:57:04.424Z,11.20
2023-04-21T21:59:33.632Z,10.90
2023-04-21T22:02:02.689Z,10.40
2023-04-21T22:04:32.359Z,10.70
2023-04-21T22:07:00.848Z,11.20
2023-04-21T22:09:29.256Z,12.00
2023-04-21T22:11:57.695Z,10.90
2023-04-21T22:14:26.098Z,11.00
2023-04-21T22:16:54.492Z,11.00
2023-04-21T22:19:23.639Z,10.20
2023-04-21T22:21:52.468Z,11.60
2023-04-21T22:24:21.154Z,9.80
2023-04-21T22:26:49.399Z,10.90
2023-04-21T22:29:17.717Z,9.90
2023-04-21T22:31:46.362Z,11.30
2023-04-21T22:34:19.760Z,10.70
2023-04-21T22:36:48.088Z,11.60
2023-04-21T22:39:17.108Z,10.80
2023-04-21T22:41:46.144Z,10.30
2023-04-21T22:44:14.673Z,10.80
2023-04-21T22:46:43.091Z,9.50
2023-04-21T22:49:11.447Z,9.70
2023-04-21T22:51:40.526Z,9.40
2023-04-21T22:54:08.841Z,8.10
2023-04-21T22:56:37.252Z,8.50
2023-04-21T22:59:06.044Z,7.70
2023-04-21T23:01:34.706Z,7.00
2023-04-21T23:04:03.462Z,7.60
2023-04-21T23:06:33.042Z,7.10
2023-04-21T23:09:01.430Z,7.60
2023-04-21T23:11:30.553Z,7.40
2023-04-21T23:13:58.875Z,7.30
2023-04-21T23:16:27.171Z,7.20
2023-04-21T23:18:55.505Z,7.40
2023-04-21T23:21:24.194Z,6.40
2023-04-21T23:23:52.638Z,6.60
2023-04-21T23:26:22.022Z,8.10
2023-04-21T23:28:50.409Z,6.10
2023-04-21T23:31:18.941Z,7.00
2023-04-21T23:33:47.418Z,6.70
2023-04-21T23:36:15.742Z,7.10
2023-04-21T23:38:44.063Z,8.30
2023-04-21T23:41:12.407Z,8.20
2023-04-21T23:43:40.908Z,8.10
2023-04-21T23:46:09.281Z,7.20
2023-04-21T23:48:37.966Z,8.20
2023-04-21T23:51:06.803Z,8.20
2023-04-21T23:53:35.762Z,8.70
2023-04-21T23:56:04.367Z,9.20
2023-04-21T23:58:32.769Z,8.30
